createdAt,value
2023-01-29T00:01:56.579Z,73.20
2023-01-29T00:04:24.004Z,73.20
2023-01-29T00:06:51.149Z,73.20
2023-01-29T00:09:18.469Z,73.20
2023-01-29T00:11:45.308Z,73.20
2023-01-29T00:14:12.332Z,73.20
2023-01-29T00:16:39.819Z,73.20
2023-01-29T00:19:07.127Z,73.30
2023-01-29T00:21:34.098Z,73.30
2023-01-29T00:24:00.934Z,73.40
2023-01-29T00:26:28.192Z,73.40
2023-01-29T00:28:57.348Z,73.40
2023-01-29T00:31:27.245Z,73.40
2023-01-29T00:33:54.267Z,73.40
2023-01-29T00:36:22.081Z,73.40
2023-01-29T00:39:02.749Z,73.40
2023-01-29T00:41:50.708Z,73.50
2023-01-29T00:44:36.978Z,73.40
2023-01-29T00:47:04.840Z,73.40
2023-01-29T00:49:31.721Z,73.60
2023-01-29T00:52:17.315Z,73.50
2023-01-29T00:54:44.151Z,73.70
2023-01-29T00:57:11.022Z,73.50
2023-01-29T00:59:38.051Z,73.60
2023-01-29T01:02:23.875Z,73.60
2023-01-29T01:04:50.759Z,73.60
2023-01-29T01:07:17.571Z,73.70
2023-01-29T01:10:02.788Z,73.70
2023-01-29T01:12:30.005Z,73.70
2023-01-29T01:14:56.983Z,73.60
2023-01-29T01:17:23.812Z,73.60
2023-01-29T01:19:50.771Z,73.60
2023-01-29T01:22:17.704Z,73.70
2023-01-29T01:24:44.583Z,73.60
2023-01-29T01:27:12.051Z,73.50
2023-01-29T01:29:39.129Z,73.60
2023-01-29T01:32:06.324Z,73.50
2023-01-29T01:34:33.338Z,73.60
2023-01-29T01:37:01.034Z,73.70
2023-01-29T01:39:27.986Z,73.60
2023-01-29T01:41:55.107Z,73.60
2023-01-29T01:44:58.709Z,73.50
2023-01-29T01:47:44.997Z,73.40
2023-01-29T01:50:19.334Z,73.50
2023-01-29T01:52:52.066Z,73.50
2023-01-29T01:55:24.617Z,73.40
2023-01-29T01:57:56.200Z,73.40
2023-01-29T02:00:26.746Z,73.50
2023-01-29T02:03:13.486Z,73.50
2023-01-29T02:06:00.297Z,73.50
2023-01-29T02:09:06.117Z,73.50
2023-01-29T02:11:36.269Z,73.50
2023-01-29T02:14:03.815Z,73.70
2023-01-29T02:16:31.053Z,73.60
2023-01-29T02:18:58.203Z,73.70
2023-01-29T02:21:46.931Z,73.70
2023-01-29T02:24:52.097Z,73.70
2023-01-29T02:27:24.478Z,73.70
2023-01-29T02:30:11.481Z,73.70
2023-01-29T02:32:59.471Z,73.70
2023-01-29T02:35:38.966Z,73.70
2023-01-29T02:38:30.506Z,73.80
2023-01-29T02:41:03.876Z,73.80
2023-01-29T02:43:30.681Z,73.70
2023-01-29T02:46:11.366Z,73.90
2023-01-29T02:48:55.918Z,74.00
2023-01-29T02:51:43.266Z,74.10
2023-01-29T02:54:21.246Z,74.20
2023-01-29T02:57:21.445Z,74.20
2023-01-29T02:59:58.209Z,74.30
2023-01-29T03:02:55.310Z,74.30
2023-01-29T03:05:51.085Z,74.30
2023-01-29T03:08:25.116Z,74.20
2023-01-29T03:11:01.373Z,74.10
2023-01-29T03:13:40.767Z,74.10
2023-01-29T03:16:14.329Z,74.20
2023-01-29T03:18:50.875Z,74.20
2023-01-29T03:21:45.996Z,74.20
2023-01-29T03:24:35.286Z,74.20
2023-01-29T03:27:25.639Z,74.20
2023-01-29T03:30:13.684Z,74.00
2023-01-29T03:32:51.320Z,74.10
2023-01-29T03:35:35.725Z,74.10
2023-01-29T03:38:07.398Z,74.20
2023-01-29T03:41:02.511Z,74.00
2023-01-29T03:43:39.838Z,74.10
2023-01-29T03:46:29.323Z,74.10
2023-01-29T03:49:20.648Z,74.10
2023-01-29T03:52:00.103Z,74.10
2023-01-29T03:54:36.890Z,74.20
2023-01-29T03:57:16.093Z,74.10
2023-01-29T03:59:57.841Z,74.10
2023-01-29T04:03:13.363Z,74.10
2023-01-29T04:06:10.579Z,74.10
2023-01-29T04:08:53.455Z,74.00
2023-01-29T04:11:23.026Z,74.00
2023-01-29T04:13:51.322Z,74.10
2023-01-29T04:16:29.087Z,74.00
2023-01-29T04:19:15.436Z,74.00
2023-01-29T04:21:44.080Z,73.80
2023-01-29T04:24:13.609Z,73.80
2023-01-29T04:26:55.343Z,73.90
2023-01-29T04:29:34.827Z,73.90
2023-01-29T04:32:11.623Z,73.80
2023-01-29T04:35:05.979Z,73.90
2023-01-29T04:37:44.911Z,73.40
2023-01-29T04:40:43.583Z,73.30
2023-01-29T04:43:21.967Z,73.30
2023-01-29T04:45:51.696Z,73.40
2023-01-29T04:48:53.869Z,73.50
2023-01-29T04:51:49.762Z,73.40
2023-01-29T04:54:20.002Z,73.30
2023-01-29T04:56:56.069Z,73.40
2023-01-29T04:59:35.615Z,73.20
2023-01-29T05:02:04.365Z,73.20
2023-01-29T05:04:34.348Z,73.20
2023-01-29T05:07:11.750Z,73.40
2023-01-29T05:09:39.763Z,73.10
2023-01-29T05:12:10.028Z,73.20
2023-01-29T05:14:39.621Z,73.20
2023-01-29T05:17:15.898Z,73.30
2023-01-29T05:19:43.086Z,73.30
2023-01-29T05:22:12.467Z,73.20
2023-01-29T05:24:39.338Z,73.20
2023-01-29T05:27:25.011Z,73.30
2023-01-29T05:29:51.846Z,73.20
2023-01-29T05:32:19.047Z,73.20
2023-01-29T05:34:45.927Z,73.00
2023-01-29T05:37:12.717Z,73.10
2023-01-29T05:39:39.591Z,73.00
2023-01-29T05:42:06.561Z,73.10
2023-01-29T05:44:33.391Z,73.20
2023-01-29T05:47:02.670Z,73.20
2023-01-29T05:49:29.722Z,73.20
2023-01-29T05:51:56.718Z,73.10
2023-01-29T05:54:23.603Z,73.10
2023-01-29T05:56:50.370Z,73.20
2023-01-29T05:59:17.441Z,73.00
2023-01-29T06:01:45.922Z,73.10
2023-01-29T06:04:12.844Z,73.10
2023-01-29T06:06:39.936Z,73.00
2023-01-29T06:09:06.879Z,73.10
2023-01-29T06:11:33.768Z,73.00
2023-01-29T06:14:00.605Z,72.90
2023-01-29T06:16:27.910Z,73.00
2023-01-29T06:18:55.257Z,73.00
2023-01-29T06:21:22.254Z,72.90
2023-01-29T06:23:49.251Z,72.90
2023-01-29T06:26:16.612Z,73.00
2023-01-29T06:28:46.271Z,73.00
2023-01-29T06:31:35.360Z,73.00
2023-01-29T06:34:00.427Z,72.90
2023-01-29T06:36:27.409Z,72.70
2023-01-29T06:38:54.358Z,72.70
2023-01-29T06:41:25.603Z,72.80
2023-01-29T06:43:53.103Z,72.90
2023-01-29T06:46:20.467Z,73.00
2023-01-29T06:48:47.600Z,72.80
2023-01-29T06:51:14.410Z,72.90
2023-01-29T06:53:42.854Z,72.90
2023-01-29T06:56:10.927Z,72.80
2023-01-29T06:58:38.449Z,72.80
2023-01-29T07:01:10.370Z,72.80
2023-01-29T07:03:37.464Z,72.90
2023-01-29T07:06:05.481Z,72.80
2023-01-29T07:08:32.401Z,72.50
2023-01-29T07:11:00.814Z,72.80
2023-01-29T07:13:28.096Z,72.80
2023-01-29T07:15:58.111Z,72.80
2023-01-29T07:18:25.345Z,72.80
2023-01-29T07:20:52.264Z,72.40
2023-01-29T07:23:19.107Z,72.60
2023-01-29T07:25:46.396Z,72.60
2023-01-29T07:28:13.339Z,72.50
2023-01-29T07:30:40.220Z,72.60
2023-01-29T07:33:09.435Z,72.50
2023-01-29T07:35:38.360Z,72.30
2023-01-29T07:38:05.496Z,72.30
2023-01-29T07:40:33.361Z,72.50
2023-01-29T07:43:01.677Z,72.30
2023-01-29T07:45:29.490Z,72.10
2023-01-29T07:47:57.104Z,72.30
2023-01-29T07:50:25.145Z,72.20
2023-01-29T07:52:53.809Z,72.30
2023-01-29T07:55:20.997Z,72.50
2023-01-29T07:57:50.809Z,72.60
2023-01-29T08:00:18.459Z,72.70
2023-01-29T08:02:45.354Z,72.40
2023-01-29T08:05:12.267Z,72.30
2023-01-29T08:07:39.024Z,72.20
2023-01-29T08:10:06.656Z,72.30
2023-01-29T08:12:33.532Z,72.10
2023-01-29T08:15:00.378Z,72.00
2023-01-29T08:17:27.247Z,72.20
2023-01-29T08:19:54.269Z,72.00
2023-01-29T08:22:21.675Z,72.30
2023-01-29T08:24:54.388Z,72.00
2023-01-29T08:27:27.322Z,72.20
2023-01-29T08:29:54.073Z,72.20
2023-01-29T08:32:20.928Z,72.00
2023-01-29T08:34:47.857Z,72.00
2023-01-29T08:37:14.875Z,72.10
2023-01-29T08:42:09.529Z,71.90
2023-01-29T08:44:36.587Z,71.60
2023-01-29T08:47:03.495Z,71.80
2023-01-29T08:49:30.388Z,71.80
2023-01-29T08:51:57.463Z,71.70
2023-01-29T08:54:24.549Z,71.50
2023-01-29T08:56:52.877Z,70.90
2023-01-29T08:59:19.957Z,71.00
2023-01-29T09:01:46.715Z,71.10
2023-01-29T09:04:13.616Z,70.50
2023-01-29T09:06:40.483Z,70.70
2023-01-29T09:09:08.516Z,70.60
2023-01-29T09:11:35.363Z,70.80
2023-01-29T09:14:02.276Z,70.50
2023-01-29T09:16:29.080Z,70.50
2023-01-29T09:18:55.888Z,70.20
2023-01-29T09:21:23.076Z,70.20
2023-01-29T09:23:49.876Z,70.20
2023-01-29T09:26:16.740Z,70.10
2023-01-29T09:28:43.578Z,70.20
2023-01-29T09:31:10.396Z,69.90
2023-01-29T09:33:37.455Z,69.80
2023-01-29T09:36:04.827Z,69.60
2023-01-29T09:38:31.959Z,69.70
2023-01-29T09:41:06.818Z,69.40
2023-01-29T09:43:56.630Z,69.60
2023-01-29T09:46:43.436Z,69.50
2023-01-29T09:49:26.133Z,69.20
2023-01-29T09:51:59.209Z,69.70
2023-01-29T09:54:34.052Z,69.70
2023-01-29T09:57:01.384Z,69.90
2023-01-29T09:59:31.077Z,69.70
2023-01-29T10:02:28.105Z,69.70
2023-01-29T10:05:20.647Z,69.30
2023-01-29T10:08:04.986Z,69.20
2023-01-29T10:10:51.825Z,69.10
2023-01-29T10:13:32.531Z,69.30
2023-01-29T10:16:26.470Z,69.20
2023-01-29T10:19:52.621Z,68.90
2023-01-29T10:22:46.941Z,68.80
2023-01-29T10:25:20.671Z,69.30
2023-01-29T10:27:52.168Z,68.70
2023-01-29T10:30:33.368Z,68.90
2023-01-29T10:33:04.766Z,68.80
2023-01-29T10:35:41.487Z,68.60
2023-01-29T10:38:33.881Z,68.70
2023-01-29T10:41:19.290Z,69.10
2023-01-29T10:44:02.388Z,69.00
2023-01-29T10:46:46.003Z,68.50
2023-01-29T10:49:40.839Z,68.00
2023-01-29T10:52:28.971Z,68.40
2023-01-29T10:55:08.072Z,68.50
2023-01-29T10:58:03.129Z,68.40
2023-01-29T11:00:41.541Z,68.40
2023-01-29T11:03:31.256Z,68.50
2023-01-29T11:06:15.194Z,68.90
2023-01-29T11:09:19.183Z,68.90
2023-01-29T11:12:10.948Z,69.10
2023-01-29T11:14:52.927Z,69.20
2023-01-29T11:17:22.923Z,68.80
2023-01-29T11:19:51.757Z,68.90
2023-01-29T11:22:32.044Z,68.80
2023-01-29T11:25:16.885Z,68.80
2023-01-29T11:27:54.524Z,68.70
2023-01-29T11:30:27.338Z,68.90
2023-01-29T11:33:18.773Z,68.70
2023-01-29T11:35:45.934Z,69.00
2023-01-29T11:38:28.133Z,68.70
2023-01-29T11:41:22.330Z,68.70
2023-01-29T11:43:49.125Z,68.60
2023-01-29T11:46:16.453Z,68.90
2023-01-29T11:48:50.480Z,69.00
2023-01-29T11:51:28.846Z,69.10
2023-01-29T11:54:04.382Z,68.90
2023-01-29T11:56:43.669Z,68.90
2023-01-29T11:59:26.570Z,69.00
2023-01-29T12:01:54.989Z,69.00
2023-01-29T12:04:28.580Z,68.80
2023-01-29T12:06:55.967Z,68.90
2023-01-29T12:09:28.330Z,69.20
2023-01-29T12:11:55.820Z,69.10
2023-01-29T12:14:34.156Z,69.30
2023-01-29T12:17:08.076Z,69.50
2023-01-29T12:19:44.044Z,69.60
2023-01-29T12:22:46.189Z,69.70
2023-01-29T12:25:31.719Z,69.90
2023-01-29T12:28:19.327Z,69.80
2023-01-29T12:31:07.588Z,69.80
2023-01-29T12:34:02.109Z,70.00
2023-01-29T12:36:35.044Z,70.00
2023-01-29T12:39:02.097Z,70.10
2023-01-29T12:41:32.905Z,70.10
2023-01-29T12:44:07.505Z,70.20
2023-01-29T12:46:40.995Z,70.30
2023-01-29T12:49:17.213Z,70.30
2023-01-29T12:51:54.445Z,70.20
2023-01-29T12:54:35.315Z,70.30
2023-01-29T12:57:08.091Z,70.30
2023-01-29T12:59:49.577Z,70.10
2023-01-29T13:02:39.317Z,70.10
2023-01-29T13:05:44.656Z,70.30
2023-01-29T13:08:43.309Z,70.40
2023-01-29T13:11:22.577Z,70.40
2023-01-29T13:14:16.800Z,70.50
2023-01-29T13:16:47.850Z,70.40
2023-01-29T13:19:36.585Z,70.60
2023-01-29T13:22:15.193Z,70.50
2023-01-29T13:24:47.884Z,70.10
2023-01-29T13:27:29.465Z,70.00
2023-01-29T13:29:57.326Z,70.00
2023-01-29T13:32:32.673Z,69.20
2023-01-29T13:35:14.053Z,69.10
2023-01-29T13:38:01.517Z,68.90
2023-01-29T13:40:30.695Z,69.10
2023-01-29T13:43:00.469Z,68.70
2023-01-29T13:45:42.655Z,68.90
2023-01-29T13:48:36.935Z,68.50
2023-01-29T13:51:15.465Z,68.90
2023-01-29T13:53:42.898Z,69.00
2023-01-29T13:56:29.158Z,68.80
2023-01-29T13:58:57.440Z,69.10
2023-01-29T14:01:49.449Z,69.20
2023-01-29T14:04:19.293Z,69.40
2023-01-29T14:06:48.851Z,69.50
2023-01-29T14:09:37.678Z,69.50
2023-01-29T14:12:25.573Z,69.50
2023-01-29T14:14:55.408Z,69.40
2023-01-29T14:17:23.976Z,69.40
2023-01-29T14:19:53.576Z,69.70
2023-01-29T14:22:23.952Z,69.60
2023-01-29T14:24:56.613Z,69.80
2023-01-29T14:27:27.778Z,69.80
2023-01-29T14:30:09.954Z,69.80
2023-01-29T14:32:40.511Z,69.80
2023-01-29T14:35:26.818Z,69.90
2023-01-29T14:38:03.662Z,70.00
2023-01-29T14:40:32.237Z,70.00
2023-01-29T14:43:04.537Z,69.90
2023-01-29T14:45:33.399Z,69.90
2023-01-29T14:48:07.633Z,69.90
2023-01-29T14:50:38.068Z,70.10
2023-01-29T14:53:20.095Z,70.10
2023-01-29T14:55:53.055Z,70.30
2023-01-29T14:58:36.819Z,70.50
2023-01-29T15:01:07.227Z,70.70
2023-01-29T15:03:43.012Z,71.00
2023-01-29T15:06:16.959Z,70.90
2023-01-29T15:08:56.946Z,70.70
2023-01-29T15:11:44.590Z,70.80
2023-01-29T15:14:37.744Z,70.50
2023-01-29T15:17:32.642Z,70.70
2023-01-29T15:19:59.526Z,70.70
2023-01-29T15:22:30.219Z,70.80
2023-01-29T15:25:20.524Z,71.00
2023-01-29T15:27:48.577Z,71.10
2023-01-29T15:30:23.104Z,71.00
2023-01-29T15:32:50.425Z,71.00
2023-01-29T15:35:36.259Z,71.20
2023-01-29T15:38:18.818Z,71.30
2023-01-29T15:40:59.876Z,71.50
2023-01-29T15:43:29.752Z,71.40
2023-01-29T15:46:04.803Z,71.50
2023-01-29T15:48:38.150Z,71.50
2023-01-29T15:51:10.270Z,71.50
2023-01-29T15:53:42.866Z,71.40
2023-01-29T15:56:11.981Z,71.40
2023-01-29T15:58:40.073Z,71.50
2023-01-29T16:01:07.144Z,71.90
2023-01-29T16:03:37.661Z,72.30
2023-01-29T16:06:07.378Z,72.70
2023-01-29T16:08:35.646Z,73.00
2023-01-29T16:11:04.906Z,73.40
2023-01-29T16:13:35.367Z,74.00
2023-01-29T16:16:24.848Z,74.30
2023-01-29T16:19:00.063Z,74.70
2023-01-29T16:21:27.892Z,74.90
2023-01-29T16:24:19.717Z,75.00
2023-01-29T16:26:49.408Z,75.00
2023-01-29T16:29:22.516Z,75.10
2023-01-29T16:31:52.961Z,75.10
2023-01-29T16:34:41.464Z,75.20
2023-01-29T16:37:20.009Z,75.30
2023-01-29T16:39:49.102Z,75.20
2023-01-29T16:42:22.103Z,75.10
2023-01-29T16:45:03.919Z,74.90
2023-01-29T16:47:39.205Z,75.00
2023-01-29T16:50:40.496Z,75.20
2023-01-29T16:53:21.423Z,75.10
2023-01-29T16:55:49.844Z,75.00
2023-01-29T16:58:20.141Z,74.90
2023-01-29T17:00:53.469Z,74.90
2023-01-29T17:03:21.282Z,74.80
2023-01-29T17:05:48.414Z,74.50
2023-01-29T17:08:33.425Z,74.40
2023-01-29T17:11:02.777Z,74.30
2023-01-29T17:13:45.070Z,73.90
2023-01-29T17:16:23.752Z,74.00
2023-01-29T17:18:53.467Z,74.00
2023-01-29T17:21:20.521Z,73.70
2023-01-29T17:23:50.507Z,73.70
2023-01-29T17:26:18.075Z,73.60
2023-01-29T17:28:45.490Z,73.60
2023-01-29T17:31:12.438Z,73.60
2023-01-29T17:33:43.357Z,73.60
2023-01-29T17:36:13.276Z,73.70
2023-01-29T17:38:40.728Z,73.60
2023-01-29T17:41:15.841Z,73.80
2023-01-29T17:43:44.238Z,73.80
2023-01-29T17:46:16.884Z,73.80
2023-01-29T17:48:44.912Z,73.80
2023-01-29T17:51:16.967Z,74.00
2023-01-29T17:53:46.471Z,74.20
2023-01-29T17:56:32.063Z,74.20
2023-01-29T17:58:58.945Z,74.30
2023-01-29T18:01:25.852Z,74.50
2023-01-29T18:03:52.945Z,74.50
2023-01-29T18:06:28.973Z,74.50
2023-01-29T18:08:56.745Z,74.60
2023-01-29T18:11:24.442Z,74.70
2023-01-29T18:13:51.550Z,74.80
2023-01-29T18:16:18.846Z,74.90
2023-01-29T18:18:45.739Z,75.10
2023-01-29T18:21:12.556Z,75.20
2023-01-29T18:23:39.760Z,75.20
2023-01-29T18:26:07.638Z,75.20
2023-01-29T18:28:34.884Z,75.40
2023-01-29T18:31:03.528Z,75.30
2023-01-29T18:33:31.234Z,75.30
2023-01-29T18:35:58.547Z,75.40
2023-01-29T18:38:25.428Z,75.30
2023-01-29T18:40:52.832Z,75.30
2023-01-29T18:43:19.688Z,75.30
2023-01-29T18:45:46.912Z,75.40
2023-01-29T18:48:14.201Z,75.50
2023-01-29T18:50:41.583Z,75.50
2023-01-29T18:53:08.840Z,75.50
2023-01-29T18:55:35.918Z,75.40
2023-01-29T18:58:26.134Z,75.30
2023-01-29T19:00:50.972Z,75.40
2023-01-29T19:03:18.419Z,75.40
2023-01-29T19:05:45.750Z,75.40
2023-01-29T19:08:22.090Z,75.50
2023-01-29T19:10:49.127Z,75.60
2023-01-29T19:13:16.349Z,75.50
2023-01-29T19:15:44.186Z,75.60
2023-01-29T19:18:13.077Z,75.50
2023-01-29T19:20:42.657Z,75.60
2023-01-29T19:23:10.493Z,75.60
2023-01-29T19:25:41.096Z,75.60
2023-01-29T19:28:11.947Z,75.60
2023-01-29T19:30:41.891Z,75.60
2023-01-29T19:33:15.785Z,75.50
2023-01-29T19:35:49.762Z,75.50
2023-01-29T19:38:24.304Z,75.60
2023-01-29T19:40:54.214Z,75.50
2023-01-29T19:43:21.923Z,75.60
2023-01-29T19:46:01.613Z,75.70
2023-01-29T19:48:39.609Z,75.70
2023-01-29T19:51:10.299Z,75.80
2023-01-29T19:53:39.125Z,75.90
2023-01-29T19:56:11.025Z,76.00
2023-01-29T19:58:38.264Z,76.10
2023-01-29T20:01:12.803Z,76.10
2023-01-29T20:03:42.027Z,76.20
2023-01-29T20:06:09.709Z,76.20
2023-01-29T20:08:37.008Z,76.40
2023-01-29T20:11:05.637Z,76.40
2023-01-29T20:13:33.586Z,76.50
2023-01-29T20:16:05.500Z,76.80
2023-01-29T20:18:32.574Z,76.80
2023-01-29T20:20:59.876Z,77.20
2023-01-29T20:23:37.065Z,77.50
2023-01-29T20:26:11.304Z,77.60
2023-01-29T20:28:38.611Z,77.80
2023-01-29T20:31:06.456Z,78.00
2023-01-29T20:33:34.815Z,78.10
2023-01-29T20:36:05.148Z,78.10
2023-01-29T20:38:34.628Z,78.20
2023-01-29T20:41:04.975Z,78.30
2023-01-29T20:43:32.437Z,78.40
2023-01-29T20:45:59.679Z,78.60
2023-01-29T20:48:26.815Z,78.60
2023-01-29T20:50:55.089Z,78.70
2023-01-29T20:53:23.932Z,78.60
2023-01-29T20:55:51.953Z,78.70
2023-01-29T20:58:19.165Z,78.70
2023-01-29T21:00:46.746Z,78.80
2023-01-29T21:03:13.987Z,78.90
2023-01-29T21:05:40.965Z,78.90
2023-01-29T21:08:07.801Z,79.00
2023-01-29T21:10:34.849Z,79.00
2023-01-29T21:13:01.685Z,79.10
2023-01-29T21:15:28.861Z,79.10
2023-01-29T21:17:55.897Z,79.30
2023-01-29T21:20:22.875Z,79.30
2023-01-29T21:22:49.809Z,79.30
2023-01-29T21:25:20.127Z,79.30
2023-01-29T21:27:47.161Z,79.40
2023-01-29T21:30:14.242Z,79.40
2023-01-29T21:32:41.275Z,79.40
2023-01-29T21:35:08.601Z,79.50
2023-01-29T21:37:37.863Z,79.50
2023-01-29T21:40:07.173Z,79.60
2023-01-29T21:42:52.577Z,79.80
2023-01-29T21:45:20.346Z,79.80
2023-01-29T21:47:47.349Z,79.80
2023-01-29T21:50:14.776Z,79.90
2023-01-29T21:52:41.877Z,80.00
2023-01-29T21:55:09.213Z,80.00
2023-01-29T21:57:36.865Z,80.10
2023-01-29T22:00:13.182Z,80.10
2023-01-29T22:02:41.000Z,80.20
2023-01-29T22:05:18.807Z,80.20
2023-01-29T22:07:48.035Z,80.10
2023-01-29T22:10:19.392Z,80.00
2023-01-29T22:12:47.299Z,80.10
2023-01-29T22:15:14.859Z,80.20
2023-01-29T22:17:42.328Z,80.40
2023-01-29T22:20:14.036Z,80.60
2023-01-29T22:22:41.501Z,80.70
2023-01-29T22:25:09.014Z,80.80
2023-01-29T22:27:35.891Z,80.90
2023-01-29T22:30:03.774Z,81.00
2023-01-29T22:32:33.194Z,81.10
2023-01-29T22:35:00.228Z,81.10
2023-01-29T22:37:27.090Z,81.20
2023-01-29T22:39:53.895Z,81.30
2023-01-29T22:42:20.947Z,81.40
2023-01-29T22:44:48.691Z,81.40
2023-01-29T22:47:15.943Z,81.50
2023-01-29T22:49:44.595Z,81.60
2023-01-29T22:52:11.770Z,81.70
2023-01-29T22:54:43.482Z,81.80
2023-01-29T22:57:12.171Z,81.90
2023-01-29T22:59:39.710Z,82.00
2023-01-29T23:02:07.967Z,82.00
2023-01-29T23:04:35.088Z,82.00
2023-01-29T23:07:01.995Z,82.10
2023-01-29T23:09:28.823Z,82.00
2023-01-29T23:11:55.653Z,82.00
2023-01-29T23:14:22.504Z,82.10
2023-01-29T23:16:49.400Z,82.10
2023-01-29T23:19:16.305Z,82.10
2023-01-29T23:21:43.430Z,82.10
2023-01-29T23:24:10.671Z,82.10
2023-01-29T23:26:56.062Z,81.90
2023-01-29T23:29:22.931Z,81.90
2023-01-29T23:31:49.995Z,81.80
2023-01-29T23:34:17.141Z,81.90
2023-01-29T23:36:44.188Z,81.80
2023-01-29T23:39:11.017Z,81.80
2023-01-29T23:41:37.998Z,81.80
2023-01-29T23:44:05.107Z,81.80
2023-01-29T23:46:32.223Z,81.70
2023-01-29T23:48:59.246Z,81.70
2023-01-29T23:51:26.302Z,81.70
2023-01-29T23:53:54.241Z,81.70
2023-01-29T23:56:21.280Z,81.80
2023-01-29T23:58:48.248Z,81.80
